Time;durP1;ratioP1;P1;durP2;ratioP2;P2;SDS_P1;SDS_P2;PMS_P1;PMS_P2;Temp;Humidity;BMP_temperature;BMP_pressure;BME280_temperature;BME280_humidity;BME280_pressure;Samples;Min_cycle;Max_cycle;Signal;HPM_P1;HPM_P2
2022/12/28 00:01:22;;;;;;;9.37;3.83;;;5.90;99.90;;;;;;5078331;28;20482;-78
2022/12/28 00:03:52;;;;;;;6.30;3.90;;;6.00;99.90;;;;;;5061738;28;20473;-78
2022/12/28 00:06:23;;;;;;;7.27;3.67;;;5.90;99.90;;;;;;5082359;28;20495;-78
2022/12/28 00:08:53;;;;;;;7.50;4.03;;;5.90;99.90;;;;;;5063766;28;20441;-78
2022/12/28 00:11:23;;;;;;;6.40;3.67;;;5.90;99.90;;;;;;5060462;28;20445;-78
2022/12/28 00:14:00;;;;;;;9.50;4.47;;;5.90;99.90;;;;;;5061168;28;20995;-78
2022/12/28 00:16:30;;;;;;;6.70;3.43;;;5.90;99.90;;;;;;5060479;28;20461;-78
2022/12/28 00:19:00;;;;;;;9.40;3.93;;;5.90;99.90;;;;;;5059236;28;20449;-78
2022/12/28 00:21:29;;;;;;;8.30;3.60;;;5.90;99.90;;;;;;5075940;28;20524;-78
2022/12/28 00:23:59;;;;;;;6.73;3.63;;;5.90;99.90;;;;;;5061177;28;20455;-78
2022/12/28 00:26:28;;;;;;;9.93;4.10;;;5.90;99.90;;;;;;5079995;28;20822;-78
2022/12/28 00:28:59;;;;;;;6.63;3.20;;;5.90;99.90;;;;;;5063678;28;20544;-79
2022/12/28 00:31:34;;;;;;;6.33;3.50;;;5.90;99.90;;;;;;5064363;28;20531;-79
2022/12/28 00:34:04;;;;;;;6.90;3.57;;;5.90;99.90;;;;;;5063034;28;20472;-79
2022/12/28 00:36:34;;;;;;;9.87;3.83;;;5.90;99.90;;;;;;5059799;28;20469;-78
2022/12/28 00:39:22;;;;;;;5.60;3.30;;;5.90;99.90;;;;;;5060342;28;20812;-78
2022/12/28 00:41:50;;;;;;;9.30;3.90;;;5.90;99.90;;;;;;5077273;28;20434;-78
2022/12/28 00:44:19;;;;;;;7.73;3.93;;;5.90;99.90;;;;;;5056787;28;20452;-78
2022/12/28 00:46:49;;;;;;;5.47;3.10;;;5.90;99.90;;;;;;5055606;28;20502;-78
2022/12/28 00:49:18;;;;;;;6.73;3.50;;;5.90;99.90;;;;;;5039762;28;20450;-78
2022/12/28 00:51:46;;;;;;;6.57;3.27;;;5.90;99.90;;;;;;5057137;28;20462;-78
2022/12/28 00:54:15;;;;;;;5.77;3.40;;;5.90;99.90;;;;;;5038617;28;21073;-78
2022/12/28 00:56:43;;;;;;;5.27;2.97;;;5.90;99.90;;;;;;5039034;28;20983;-78
2022/12/28 00:59:11;;;;;;;7.70;3.93;;;5.90;99.90;;;;;;5038371;28;20461;-78
2022/12/28 01:01:41;;;;;;;6.80;3.10;;;5.90;99.90;;;;;;5038192;28;20541;-78
2022/12/28 01:04:09;;;;;;;7.37;3.60;;;5.90;99.90;;;;;;5038463;28;20485;-78
2022/12/28 01:06:38;;;;;;;8.63;3.77;;;5.90;99.90;;;;;;5038958;28;20470;-77
2022/12/28 01:09:06;;;;;;;9.30;3.90;;;5.90;99.90;;;;;;5037937;28;20452;-78
2022/12/28 01:11:35;;;;;;;9.00;4.33;;;5.90;99.90;;;;;;5037927;28;20442;-78
2022/12/28 01:14:03;;;;;;;5.90;3.23;;;5.90;99.90;;;;;;5038560;28;20943;-78
2022/12/28 01:16:33;;;;;;;5.20;3.77;;;5.90;99.90;;;;;;5038037;28;20473;-78
2022/12/28 01:19:05;;;;;;;7.97;3.73;;;5.90;99.90;;;;;;5038141;28;21033;-77
2022/12/28 01:21:35;;;;;;;8.90;3.70;;;5.90;99.90;;;;;;5037319;28;20442;-77
2022/12/28 01:24:04;;;;;;;7.60;3.70;;;5.90;99.90;;;;;;5037040;28;20830;-76
2022/12/28 01:26:34;;;;;;;6.13;4.30;;;5.90;99.90;;;;;;5036699;28;20478;-77
2022/12/28 01:29:02;;;;;;;9.23;3.23;;;6.00;99.90;;;;;;5038263;28;20904;-77
2022/12/28 01:31:32;;;;;;;6.23;3.63;;;5.90;99.90;;;;;;5055207;28;20572;-77
2022/12/28 01:34:02;;;;;;;6.00;3.97;;;6.00;99.90;;;;;;5036779;28;20459;-77
2022/12/28 01:36:33;;;;;;;6.90;3.80;;;6.00;99.90;;;;;;5036946;28;20890;-78
2022/12/28 01:39:07;;;;;;;5.97;3.30;;;6.00;99.90;;;;;;5037624;28;20954;-77
2022/12/28 01:41:38;;;;;;;6.03;3.93;;;6.00;99.90;;;;;;5037994;28;20529;-78
2022/12/28 01:44:42;;;;;;;6.50;3.77;;;6.00;99.90;;;;;;5055725;28;20962;-78
2022/12/28 01:47:14;;;;;;;7.57;4.43;;;6.00;99.90;;;;;;5038333;28;20480;-78
2022/12/28 01:49:57;;;;;;;9.10;4.50;;;5.90;99.90;;;;;;5043369;28;20443;-78
2022/12/28 01:52:29;;;;;;;7.07;3.87;;;5.90;99.90;;;;;;5046919;28;20430;-77
2022/12/28 01:55:05;;;;;;;5.93;3.33;;;6.00;99.90;;;;;;5058284;28;20476;-78
2022/12/28 01:57:39;;;;;;;6.47;3.70;;;6.00;99.90;;;;;;5061030;28;20460;-78
2022/12/28 02:00:11;;;;;;;8.03;4.17;;;5.90;99.90;;;;;;5062449;28;20871;-79
2022/12/28 02:02:42;;;;;;;8.27;4.00;;;5.90;99.90;;;;;;5078826;28;20475;-77
2022/12/28 02:05:15;;;;;;;10.00;4.27;;;5.90;99.90;;;;;;5065762;28;20461;-77
2022/12/28 02:07:53;;;;;;;8.10;4.17;;;5.90;99.90;;;;;;5037960;28;20462;-78
2022/12/28 02:10:24;;;;;;;6.73;3.97;;;5.90;99.90;;;;;;5036461;28;20438;-77
2022/12/28 02:13:13;;;;;;;6.40;4.00;;;5.90;99.90;;;;;;5040888;28;20478;-77
2022/12/28 02:15:41;;;;;;;6.60;4.00;;;5.90;99.90;;;;;;5039010;28;20473;-78
2022/12/28 02:18:10;;;;;;;7.67;3.90;;;5.90;99.90;;;;;;5040987;28;20482;-78
2022/12/28 02:20:53;;;;;;;6.93;4.20;;;5.90;99.90;;;;;;5041620;28;20507;-78
2022/12/28 02:23:38;;;;;;;7.40;4.23;;;5.90;99.90;;;;;;5040919;28;20538;-78
2022/12/28 02:26:34;;;;;;;5.33;3.80;;;5.90;99.90;;;;;;5078605;28;20483;-78
2022/12/28 02:29:34;;;;;;;6.10;4.27;;;5.90;99.90;;;;;;5061583;28;20508;-78
2022/12/28 02:32:11;;;;;;;8.40;5.23;;;5.90;99.90;;;;;;5063034;28;20484;-78
2022/12/28 02:34:45;;;;;;;7.23;4.40;;;5.90;99.90;;;;;;5063397;28;20441;-78
2022/12/28 02:37:18;;;;;;;8.07;4.70;;;5.90;99.90;;;;;;5063827;28;20445;-78
2022/12/28 02:39:51;;;;;;;7.50;4.73;;;5.80;99.90;;;;;;5080269;28;20528;-79
2022/12/28 02:42:21;;;;;;;6.10;4.70;;;5.80;99.90;;;;;;5062569;28;20499;-78
2022/12/28 02:50:30;;;;;;;8.23;5.10;;;5.80;99.90;;;;;;5067486;28;20485;-77
2022/12/28 02:53:24;;;;;;;8.10;4.77;;;5.80;99.90;;;;;;5077366;28;20463;-76
2022/12/28 02:56:06;;;;;;;9.77;5.20;;;5.80;99.90;;;;;;5074898;28;20461;-77
2022/12/28 02:59:07;;;;;;;7.13;4.83;;;5.80;99.90;;;;;;5074568;28;20418;-77
2022/12/28 03:01:52;;;;;;;6.67;4.60;;;5.70;99.90;;;;;;5075134;28;20504;-77
2022/12/28 03:04:28;;;;;;;5.97;5.30;;;5.80;99.90;;;;;;5059945;28;20480;-78
2022/12/28 03:09:52;;;;;;;7.60;5.50;;;5.70;99.90;;;;;;5059263;28;20449;-78
2022/12/28 03:12:27;;;;;;;6.27;5.00;;;5.70;99.90;;;;;;5060043;28;20468;-78
2022/12/28 03:14:59;;;;;;;8.87;5.30;;;5.70;99.90;;;;;;5059463;28;20504;-78
2022/12/28 03:31:41;;;;;;;8.93;4.67;;;5.70;99.90;;;;;;5056222;28;20442;-78
2022/12/28 03:34:14;;;;;;;7.13;4.53;;;5.70;99.90;;;;;;5059600;28;20442;-78
2022/12/28 03:36:56;;;;;;;7.13;4.70;;;5.70;99.90;;;;;;5060522;28;20473;-78
2022/12/28 03:39:36;;;;;;;8.13;4.60;;;5.70;99.90;;;;;;5058616;28;20453;-78
2022/12/28 03:45:06;;;;;;;6.67;4.50;;;5.70;99.90;;;;;;5059131;28;20487;-77
2022/12/28 03:47:37;;;;;;;8.33;4.57;;;5.70;99.90;;;;;;5059611;28;20848;-78
2022/12/28 03:50:08;;;;;;;8.53;4.83;;;5.70;99.90;;;;;;5060662;28;20448;-78
2022/12/28 03:52:36;;;;;;;11.47;4.77;;;5.70;99.90;;;;;;5056742;28;20442;-77
2022/12/28 03:55:06;;;;;;;8.77;5.13;;;5.70;99.90;;;;;;5044480;28;20462;-78
2022/12/28 03:57:35;;;;;;;8.03;4.60;;;5.70;99.90;;;;;;5043627;28;20474;-78
2022/12/28 04:00:09;;;;;;;9.07;6.80;;;5.70;99.90;;;;;;5043993;28;20449;-77
2022/12/28 04:02:42;;;;;;;8.70;6.03;;;5.70;99.90;;;;;;5064364;28;20972;-78
2022/12/28 04:05:14;;;;;;;7.33;5.00;;;5.70;99.90;;;;;;5045844;28;20557;-78
2022/12/28 04:07:43;;;;;;;12.30;6.50;;;5.70;99.90;;;;;;5047292;28;20462;-78
2022/12/28 04:10:12;;;;;;;9.90;6.83;;;5.80;99.90;;;;;;5045847;28;20454;-78
2022/12/28 04:12:41;;;;;;;9.33;5.80;;;5.80;99.90;;;;;;5044824;28;20541;-78
2022/12/28 04:15:27;;;;;;;8.00;6.10;;;5.70;99.90;;;;;;5058390;28;20469;-78
2022/12/28 04:17:56;;;;;;;7.20;6.50;;;5.80;99.90;;;;;;5039038;28;20458;-78
2022/12/28 04:20:25;;;;;;;12.70;10.33;;;5.80;99.90;;;;;;5039959;28;20452;-78
2022/12/28 04:22:53;;;;;;;9.27;7.17;;;5.80;99.90;;;;;;5040794;28;20456;-78
2022/12/28 04:25:22;;;;;;;9.53;7.00;;;5.80;99.90;;;;;;5042046;28;20484;-78
2022/12/28 04:27:51;;;;;;;7.17;6.47;;;5.80;99.90;;;;;;5059242;28;20775;-78
2022/12/28 04:30:39;;;;;;;7.73;7.03;;;5.80;99.90;;;;;;5059899;28;20451;-77
2022/12/28 04:33:07;;;;;;;14.43;7.30;;;5.80;99.90;;;;;;5041886;28;20511;-78
2022/12/28 04:35:37;;;;;;;9.10;7.10;;;5.90;99.90;;;;;;5042613;28;20488;-79
2022/12/28 04:38:06;;;;;;;8.17;7.37;;;5.80;99.90;;;;;;5042892;28;20454;-78
2022/12/28 04:40:35;;;;;;;9.80;7.90;;;5.90;99.90;;;;;;5061329;28;20446;-78
2022/12/28 04:43:03;;;;;;;10.50;8.00;;;5.90;99.90;;;;;;5041987;28;20453;-78
2022/12/28 04:45:31;;;;;;;9.03;8.00;;;5.90;99.90;;;;;;5059817;28;20515;-78
2022/12/28 04:47:59;;;;;;;9.63;7.90;;;5.90;99.90;;;;;;5041761;28;20460;-78
2022/12/28 04:50:28;;;;;;;10.20;9.13;;;5.90;99.90;;;;;;5042923;28;20557;-79
2022/12/28 04:52:58;;;;;;;11.10;10.00;;;5.90;99.90;;;;;;5046791;28;20434;-79
2022/12/28 04:55:28;;;;;;;9.80;8.83;;;6.00;99.90;;;;;;5045878;28;20477;-78
2022/12/28 04:58:00;;;;;;;11.47;10.37;;;6.00;99.90;;;;;;5075396;28;20429;-78
2022/12/28 05:00:28;;;;;;;12.23;10.20;;;6.00;99.90;;;;;;5052123;28;20825;-78
2022/12/28 05:02:59;;;;;;;12.53;10.43;;;6.00;99.90;;;;;;5053914;28;20520;-77
2022/12/28 05:05:28;;;;;;;11.50;10.40;;;5.90;99.90;;;;;;5044353;28;20470;-78
2022/12/28 05:07:59;;;;;;;12.33;11.30;;;6.00;99.90;;;;;;5045878;28;20464;-78
2022/12/28 05:10:28;;;;;;;14.10;10.67;;;6.00;99.90;;;;;;5046334;28;20466;-79
2022/12/28 05:12:56;;;;;;;11.73;10.63;;;6.00;99.90;;;;;;5061996;28;20446;-78
2022/12/28 05:15:25;;;;;;;12.37;11.23;;;6.00;99.90;;;;;;5061916;28;20491;-79
2022/12/28 05:17:55;;;;;;;11.93;10.70;;;6.10;99.90;;;;;;5042179;28;20450;-78
2022/12/28 05:20:23;;;;;;;12.60;11.40;;;6.00;99.90;;;;;;5043697;28;20584;-79
2022/12/28 05:22:51;;;;;;;12.00;10.83;;;6.10;99.90;;;;;;5045145;28;20544;-78
2022/12/28 05:25:20;;;;;;;12.40;11.20;;;6.10;99.90;;;;;;5044556;28;20466;-78
2022/12/28 05:27:49;;;;;;;11.50;10.60;;;6.10;99.90;;;;;;5042623;28;20452;-79
2022/12/28 05:30:17;;;;;;;13.27;11.97;;;6.10;99.90;;;;;;5060056;28;20462;-78
2022/12/28 05:32:45;;;;;;;12.43;11.33;;;6.10;99.90;;;;;;5061194;28;20442;-78
2022/12/28 05:35:14;;;;;;;12.10;11.00;;;6.20;99.90;;;;;;5044509;28;20578;-79
2022/12/28 05:37:42;;;;;;;11.90;10.80;;;6.20;99.90;;;;;;5060638;28;20513;-78
2022/12/28 05:40:11;;;;;;;12.53;11.37;;;6.20;99.90;;;;;;5042653;28;20456;-79
2022/12/28 05:42:40;;;;;;;12.83;11.53;;;6.20;99.90;;;;;;5042969;28;20454;-77
2022/12/28 05:45:16;;;;;;;13.30;11.80;;;6.20;99.90;;;;;;5042583;28;20510;-78
2022/12/28 05:47:44;;;;;;;12.80;11.70;;;6.30;99.90;;;;;;5042066;28;20446;-79
2022/12/28 05:50:13;;;;;;;13.47;12.27;;;6.30;99.90;;;;;;5060120;28;20826;-79
2022/12/28 05:52:41;;;;;;;13.83;12.43;;;6.30;99.90;;;;;;5041827;28;20951;-78
2022/12/28 05:55:10;;;;;;;13.40;12.30;;;6.30;99.90;;;;;;5042826;28;20507;-79
2022/12/28 05:57:39;;;;;;;14.27;13.03;;;6.30;99.90;;;;;;5041986;28;20435;-79
2022/12/28 06:00:09;;;;;;;13.33;12.23;;;6.30;99.90;;;;;;5061226;28;20489;-79
2022/12/28 06:02:40;;;;;;;13.37;12.10;;;6.30;99.90;;;;;;5045330;28;20442;-79
2022/12/28 06:05:09;;;;;;;13.07;11.97;;;6.40;99.90;;;;;;5061344;28;20535;-78
2022/12/28 06:07:37;;;;;;;13.33;12.13;;;6.40;99.90;;;;;;5062696;28;20457;-78
2022/12/28 06:10:06;;;;;;;13.03;11.87;;;6.40;99.90;;;;;;5062373;28;20466;-78
2022/12/28 06:12:34;;;;;;;13.30;12.20;;;6.40;99.90;;;;;;5061146;28;20864;-78
2022/12/28 06:15:05;;;;;;;10.17;9.27;;;6.40;99.90;;;;;;5062726;28;20818;-78
2022/12/28 06:17:33;;;;;;;13.57;12.30;;;6.40;99.90;;;;;;5069072;28;20451;-77
2022/12/28 06:20:01;;;;;;;12.67;11.57;;;6.40;99.90;;;;;;5083757;28;20438;-78
2022/12/28 06:22:29;;;;;;;14.07;12.87;;;6.40;99.90;;;;;;5065417;28;20449;-78
2022/12/28 06:24:57;;;;;;;13.53;12.33;;;6.50;99.90;;;;;;5081312;28;20469;-79
2022/12/28 06:27:25;;;;;;;14.30;13.13;;;6.50;99.90;;;;;;5080766;28;20942;-79
2022/12/28 06:29:55;;;;;;;15.07;13.67;;;6.50;99.90;;;;;;5063326;28;20475;-78
2022/12/28 06:32:24;;;;;;;13.73;12.53;;;6.50;99.90;;;;;;5081240;28;20444;-78
2022/12/28 06:34:52;;;;;;;14.47;13.10;;;6.50;99.90;;;;;;5062651;28;20473;-78
2022/12/28 06:37:21;;;;;;;14.77;13.47;;;6.60;99.90;;;;;;5062477;28;20539;-78
2022/12/28 06:39:49;;;;;;;14.50;13.30;;;6.60;99.90;;;;;;5062549;28;20453;-78
2022/12/28 06:42:17;;;;;;;15.03;13.73;;;6.60;99.90;;;;;;5079537;28;20444;-77
2022/12/28 06:44:45;;;;;;;15.73;14.40;;;6.60;99.90;;;;;;5061976;28;20445;-78
2022/12/28 06:47:13;;;;;;;16.07;14.77;;;6.60;99.90;;;;;;5080196;28;20441;-79
2022/12/28 06:49:43;;;;;;;13.80;12.67;;;6.70;99.90;;;;;;5062615;28;20876;-79
2022/12/28 06:52:11;;;;;;;14.37;13.17;;;6.70;99.90;;;;;;5061141;28;20457;-79
2022/12/28 06:54:39;;;;;;;14.30;13.00;;;6.70;99.90;;;;;;5061169;28;20441;-77
2022/12/28 06:57:07;;;;;;;16.13;14.63;;;6.70;99.90;;;;;;5062390;28;20446;-79
2022/12/28 06:59:35;;;;;;;15.50;14.10;;;6.80;99.90;;;;;;5077154;28;20496;-78
2022/12/28 07:02:04;;;;;;;15.43;14.13;;;6.80;99.90;;;;;;5058390;28;20502;-77
2022/12/28 07:04:32;;;;;;;15.83;14.47;;;6.80;99.90;;;;;;5059013;28;20449;-78
2022/12/28 07:07:01;;;;;;;14.47;13.27;;;6.80;99.90;;;;;;5054338;28;20518;-77
2022/12/28 07:09:29;;;;;;;15.40;14.20;;;6.90;99.90;;;;;;5059501;28;20434;-77
2022/12/28 07:11:58;;;;;;;14.70;13.50;;;6.90;99.90;;;;;;5038586;28;20459;-77
2022/12/28 07:14:26;;;;;;;15.53;14.30;;;6.90;99.90;;;;;;5040530;28;20980;-78
2022/12/28 07:16:54;;;;;;;14.63;13.43;;;7.00;99.90;;;;;;5059837;28;20468;-77
2022/12/28 07:19:22;;;;;;;14.03;12.93;;;7.00;99.90;;;;;;5041298;28;20486;-78
2022/12/28 07:21:50;;;;;;;14.00;12.80;;;7.00;99.90;;;;;;5040426;28;20450;-77
2022/12/28 07:24:20;;;;;;;14.03;12.83;;;7.00;99.90;;;;;;5040482;28;20443;-77
2022/12/28 07:26:48;;;;;;;14.23;13.13;;;7.10;99.90;;;;;;5042377;28;20463;-77
2022/12/28 07:29:16;;;;;;;13.77;12.57;;;7.10;99.90;;;;;;5042887;28;20456;-77
2022/12/28 07:31:44;;;;;;;13.53;12.43;;;7.10;99.90;;;;;;5042258;28;21016;-77
2022/12/28 07:34:13;;;;;;;14.40;13.27;;;7.10;99.90;;;;;;5063179;28;20514;-78
2022/12/28 07:36:42;;;;;;;13.80;12.70;;;7.20;99.90;;;;;;5044774;28;21048;-78
2022/12/28 07:39:11;;;;;;;13.83;12.73;;;7.20;99.90;;;;;;5044275;28;20758;-76
2022/12/28 07:41:40;;;;;;;13.83;12.70;;;7.20;99.90;;;;;;5044626;28;20443;-77
2022/12/28 07:44:09;;;;;;;14.40;13.27;;;7.30;99.90;;;;;;5051637;28;20939;-78
2022/12/28 07:46:38;;;;;;;15.43;14.03;;;7.30;99.90;;;;;;5076139;28;20459;-78
2022/12/28 07:49:07;;;;;;;14.23;13.13;;;7.30;99.90;;;;;;5062128;28;20446;-78
2022/12/28 07:51:37;;;;;;;14.23;13.03;;;7.40;99.90;;;;;;5059312;28;20482;-78
2022/12/28 07:54:05;;;;;;;14.90;13.60;;;7.40;99.90;;;;;;5073069;28;20426;-79
2022/12/28 07:56:34;;;;;;;14.83;13.63;;;7.40;99.90;;;;;;5044269;28;20477;-78
2022/12/28 07:59:03;;;;;;;16.20;14.90;;;7.40;99.90;;;;;;5042667;28;20981;-78
2022/12/28 08:01:33;;;;;;;15.70;14.40;;;7.40;99.90;;;;;;5042797;28;20444;-78
2022/12/28 08:04:04;;;;;;;16.00;14.70;;;7.50;99.90;;;;;;5058491;28;20547;-78
2022/12/28 08:06:35;;;;;;;16.00;14.80;;;7.50;99.90;;;;;;5040944;28;20511;-78
2022/12/28 08:09:05;;;;;;;14.60;13.30;;;7.50;99.90;;;;;;5040588;28;20448;-78
2022/12/28 08:11:35;;;;;;;14.93;13.60;;;7.50;99.90;;;;;;5042742;28;20459;-79
2022/12/28 08:14:06;;;;;;;15.00;13.80;;;7.60;99.90;;;;;;5040874;28;20491;-77
2022/12/28 08:16:36;;;;;;;13.23;12.23;;;7.60;99.90;;;;;;5040671;28;20474;-77
2022/12/28 08:19:05;;;;;;;13.67;12.47;;;7.60;99.90;;;;;;5039430;28;20821;-77
2022/12/28 08:21:35;;;;;;;14.43;13.23;;;7.60;99.90;;;;;;5040132;28;20532;-79
2022/12/28 08:24:04;;;;;;;13.50;12.40;;;7.60;99.90;;;;;;5057757;28;20450;-77
2022/12/28 08:26:35;;;;;;;12.47;11.43;;;7.70;99.90;;;;;;5057859;28;20899;-78
2022/12/28 08:29:06;;;;;;;11.67;10.67;;;7.70;99.90;;;;;;5040452;28;20434;-78
2022/12/28 08:31:37;;;;;;;11.27;10.37;;;7.70;99.90;;;;;;5043422;28;20491;-78
2022/12/28 08:34:07;;;;;;;11.57;10.57;;;7.80;99.90;;;;;;5062464;28;20427;-78
2022/12/28 08:36:35;;;;;;;11.77;10.77;;;7.80;99.90;;;;;;5042935;28;20511;-78
2022/12/28 08:39:04;;;;;;;11.40;10.50;;;7.70;99.90;;;;;;5060200;28;20432;-79
2022/12/28 08:41:32;;;;;;;10.70;9.80;;;7.80;99.90;;;;;;5061679;28;20451;-79
2022/12/28 08:44:01;;;;;;;10.80;9.90;;;7.80;99.90;;;;;;5060114;28;20911;-78
2022/12/28 08:46:33;;;;;;;11.70;10.70;;;7.90;99.90;;;;;;5040651;28;20844;-79
2022/12/28 08:49:01;;;;;;;10.97;10.07;;;7.90;99.90;;;;;;5041624;28;21012;-77
2022/12/28 08:51:32;;;;;;;10.83;9.93;;;7.90;99.90;;;;;;5040574;28;20539;-79
2022/12/28 08:54:01;;;;;;;11.90;10.90;;;8.00;99.90;;;;;;5044158;28;20536;-79
2022/12/28 08:56:31;;;;;;;10.77;9.97;;;8.00;99.90;;;;;;5040269;28;20575;-77
2022/12/28 08:59:00;;;;;;;10.77;9.87;;;8.00;99.90;;;;;;5039145;28;20536;-77
2022/12/28 09:01:31;;;;;;;9.87;9.07;;;8.00;99.90;;;;;;5058334;28;20455;-79
2022/12/28 09:04:13;;;;;;;9.60;8.77;;;8.00;99.90;;;;;;5058288;28;20437;-80
2022/12/28 09:06:42;;;;;;;10.97;10.00;;;8.10;99.90;;;;;;5040834;28;20477;-78
2022/12/28 09:09:12;;;;;;;10.60;9.60;;;8.10;99.90;;;;;;5041880;28;20465;-79
2022/12/28 09:11:41;;;;;;;9.90;9.10;;;8.10;99.90;;;;;;5042074;28;20556;-79
2022/12/28 09:14:11;;;;;;;10.23;9.43;;;8.10;99.90;;;;;;5041916;28;20475;-77
2022/12/28 09:16:49;;;;;;;9.00;8.30;;;8.20;99.90;;;;;;5042232;28;20477;-79
2022/12/28 09:19:17;;;;;;;9.10;8.40;;;8.20;99.90;;;;;;5041564;28;20460;-78
2022/12/28 09:21:47;;;;;;;8.77;8.07;;;8.20;99.90;;;;;;5059698;28;20431;-79
2022/12/28 09:24:16;;;;;;;9.10;8.30;;;8.30;99.90;;;;;;5042317;28;20449;-77
2022/12/28 09:26:45;;;;;;;9.00;8.20;;;8.30;99.90;;;;;;5039099;28;20522;-76
2022/12/28 09:29:13;;;;;;;8.90;8.00;;;8.30;99.90;;;;;;5058004;28;20442;-78
2022/12/28 09:31:43;;;;;;;9.47;8.67;;;8.40;99.90;;;;;;5039999;28;20466;-77
2022/12/28 09:34:12;;;;;;;9.03;8.23;;;8.40;99.90;;;;;;5041398;28;20503;-77
2022/12/28 09:37:01;;;;;;;9.30;8.50;;;8.40;99.90;;;;;;5041122;28;20464;-78
2022/12/28 09:39:29;;;;;;;9.83;9.03;;;8.40;99.90;;;;;;5038718;28;20445;-77
2022/12/28 09:42:02;;;;;;;9.10;8.40;;;8.50;99.90;;;;;;5037026;28;20453;-76
2022/12/28 09:44:52;;;;;;;8.70;8.00;;;8.50;99.90;;;;;;5037546;28;20509;-78
2022/12/28 09:47:26;;;;;;;8.50;7.70;;;8.50;99.90;;;;;;5038858;28;20442;-77
2022/12/28 09:50:28;;;;;;;9.47;8.50;;;8.60;99.90;;;;;;5055941;28;20423;-77
2022/12/28 09:53:19;;;;;;;8.40;7.70;;;8.60;99.90;;;;;;5037451;28;20473;-78
2022/12/28 09:56:03;;;;;;;9.00;8.30;;;8.60;99.90;;;;;;5038637;28;20470;-77
2022/12/28 09:58:34;;;;;;;8.27;7.57;;;8.60;99.90;;;;;;5060168;28;20430;-79
2022/12/28 10:01:03;;;;;;;7.90;7.20;;;8.60;99.90;;;;;;5040007;28;20449;-79
2022/12/28 10:03:36;;;;;;;7.87;7.17;;;8.70;99.90;;;;;;5041076;28;20446;-78
2022/12/28 10:06:12;;;;;;;8.00;7.30;;;8.60;99.90;;;;;;5040443;28;20560;-79
2022/12/28 10:08:45;;;;;;;7.50;6.90;;;8.70;99.90;;;;;;5041232;28;20446;-79
2022/12/28 10:11:18;;;;;;;7.27;6.63;;;8.70;99.90;;;;;;5038737;28;20446;-80
2022/12/28 10:13:51;;;;;;;6.60;6.00;;;8.70;99.90;;;;;;5058229;28;20911;-78
2022/12/28 10:16:24;;;;;;;6.53;6.03;;;8.70;99.90;;;;;;5036948;28;20500;-79
2022/12/28 10:18:52;;;;;;;6.57;5.97;;;8.80;99.90;;;;;;5036899;28;20449;-78
2022/12/28 10:21:24;;;;;;;6.13;5.53;;;8.80;99.90;;;;;;5038311;28;20876;-78
2022/12/28 10:24:01;;;;;;;5.87;5.37;;;8.80;99.90;;;;;;5038331;28;20442;-77
2022/12/28 10:26:49;;;;;;;6.53;5.93;;;8.80;99.90;;;;;;5055677;28;20485;-78
2022/12/28 10:29:20;;;;;;;5.83;5.23;;;8.80;99.90;;;;;;5037379;28;20449;-78
2022/12/28 10:31:59;;;;;;;6.27;5.67;;;8.80;99.90;;;;;;5037873;28;20829;-77
2022/12/28 10:34:29;;;;;;;6.40;5.80;;;8.80;99.90;;;;;;5038198;28;20927;-77
2022/12/28 10:37:08;;;;;;;6.33;5.73;;;8.80;99.90;;;;;;5037509;28;20464;-77
2022/12/28 10:39:49;;;;;;;7.00;6.40;;;8.90;99.90;;;;;;5037921;28;20430;-78
2022/12/28 10:42:23;;;;;;;6.70;6.10;;;8.80;99.90;;;;;;5037334;28;20430;-77
2022/12/28 10:44:52;;;;;;;6.57;5.97;;;8.90;99.90;;;;;;5055290;28;20881;-78
2022/12/28 10:47:30;;;;;;;6.30;5.70;;;8.90;99.90;;;;;;5037035;28;20438;-77
2022/12/28 10:49:58;;;;;;;7.10;6.40;;;8.90;99.90;;;;;;5036766;28;20434;-78
2022/12/28 10:52:57;;;;;;;6.63;6.03;;;8.90;99.90;;;;;;5055021;28;20960;-76
2022/12/28 10:55:31;;;;;;;7.30;6.70;;;8.90;99.90;;;;;;5035671;28;20473;-76
2022/12/28 10:58:16;;;;;;;7.00;6.40;;;8.90;99.90;;;;;;5053626;28;20475;-77
2022/12/28 11:01:04;;;;;;;7.13;6.43;;;8.90;99.90;;;;;;5035536;28;20444;-77
2022/12/28 11:03:37;;;;;;;7.97;7.17;;;9.00;99.90;;;;;;5053832;28;20476;-77
2022/12/28 11:06:14;;;;;;;8.23;7.53;;;9.00;99.90;;;;;;5036357;28;20577;-77
2022/12/28 11:09:01;;;;;;;8.10;7.40;;;9.00;99.90;;;;;;5054670;28;20919;-78
2022/12/28 11:11:30;;;;;;;9.33;8.53;;;9.10;99.90;;;;;;5055971;28;20426;-79
2022/12/28 11:14:02;;;;;;;10.43;9.53;;;9.10;99.90;;;;;;5037943;28;20440;-78
2022/12/28 11:16:35;;;;;;;9.00;8.20;;;9.10;99.90;;;;;;5037979;28;20473;-77
2022/12/28 11:19:04;;;;;;;9.00;8.30;;;9.10;99.90;;;;;;5037103;28;20438;-77
2022/12/28 11:21:34;;;;;;;9.80;9.00;;;9.10;99.90;;;;;;5036568;28;20525;-78
2022/12/28 11:24:05;;;;;;;8.93;8.23;;;9.20;99.90;;;;;;5036028;28;20850;-77
2022/12/28 11:26:33;;;;;;;7.50;6.90;;;9.20;99.90;;;;;;5054609;28;21015;-77
2022/12/28 11:29:02;;;;;;;7.20;6.60;;;9.20;99.90;;;;;;5046475;28;20449;-77
2022/12/28 11:31:33;;;;;;;7.80;6.70;;;9.20;99.90;;;;;;5047631;28;20453;-78
2022/12/28 11:34:05;;;;;;;7.47;6.77;;;9.30;99.90;;;;;;5039993;28;20549;-77
2022/12/28 11:36:40;;;;;;;7.40;6.80;;;9.20;99.90;;;;;;5038171;28;20461;-78
2022/12/28 11:39:45;;;;;;;7.53;6.73;;;9.30;99.90;;;;;;5055395;28;20905;-78
2022/12/28 11:42:52;;;;;;;8.30;7.60;;;9.30;99.90;;;;;;5056318;28;20414;-77
2022/12/28 11:45:50;;;;;;;6.83;6.23;;;9.30;99.90;;;;;;5038394;28;20473;-78
2022/12/28 11:48:48;;;;;;;7.13;6.40;;;9.30;99.90;;;;;;5036253;28;20500;-75
2022/12/28 11:51:18;;;;;;;6.33;5.83;;;9.30;99.90;;;;;;5036439;28;20461;-77
2022/12/28 11:53:52;;;;;;;6.63;6.03;;;9.40;99.90;;;;;;5057191;28;20993;-78
2022/12/28 11:56:22;;;;;;;6.60;6.00;;;9.30;99.90;;;;;;5063721;28;20460;-78
2022/12/28 11:59:05;;;;;;;6.97;6.37;;;9.40;99.90;;;;;;5047040;28;20450;-78
2022/12/28 12:01:43;;;;;;;6.80;5.90;;;9.40;99.90;;;;;;5040585;28;20434;-78
2022/12/28 12:04:44;;;;;;;5.90;5.30;;;9.40;99.90;;;;;;5038528;28;20496;-78
2022/12/28 12:07:45;;;;;;;5.70;5.20;;;9.40;99.90;;;;;;5057963;28;20434;-77
2022/12/28 12:10:34;;;;;;;5.57;4.93;;;9.40;99.90;;;;;;5040376;28;20453;-79
2022/12/28 12:13:18;;;;;;;5.07;4.57;;;9.40;99.90;;;;;;5042977;28;20466;-78
2022/12/28 12:15:48;;;;;;;5.13;4.63;;;9.40;99.90;;;;;;5042441;28;20508;-78
2022/12/28 12:18:20;;;;;;;5.20;4.70;;;9.50;99.90;;;;;;5073143;28;20430;-77
2022/12/28 12:20:55;;;;;;;5.13;4.60;;;9.50;99.90;;;;;;5053937;28;20430;-78
2022/12/28 12:23:32;;;;;;;4.80;4.40;;;9.50;99.90;;;;;;5046791;28;20448;-77
2022/12/28 12:26:09;;;;;;;5.00;4.60;;;9.50;99.90;;;;;;5059088;28;20453;-76
2022/12/28 12:28:44;;;;;;;5.30;4.23;;;9.50;99.90;;;;;;5061787;28;20434;-78
2022/12/28 12:31:17;;;;;;;5.70;4.93;;;9.50;99.90;;;;;;5061369;28;20489;-78
2022/12/28 12:33:51;;;;;;;5.13;4.63;;;9.50;99.90;;;;;;5060906;28;20457;-80
2022/12/28 12:36:36;;;;;;;4.37;3.97;;;9.50;99.90;;;;;;5063500;28;20464;-79
2022/12/28 12:39:19;;;;;;;4.23;3.83;;;9.50;99.90;;;;;;5044975;28;20438;-79
2022/12/28 12:41:56;;;;;;;5.33;3.80;;;9.60;99.90;;;;;;5046994;28;20521;-79
2022/12/28 12:44:33;;;;;;;4.30;3.63;;;9.50;99.90;;;;;;5043002;28;20437;-78
2022/12/28 12:47:20;;;;;;;3.33;2.97;;;9.50;99.90;;;;;;5059873;28;20964;-77
2022/12/28 12:50:02;;;;;;;4.03;3.17;;;9.50;99.90;;;;;;5043559;28;20438;-83
2022/12/28 12:52:40;;;;;;;3.17;2.83;;;9.60;99.90;;;;;;5042934;28;20445;-84
2022/12/28 12:55:23;;;;;;;4.87;3.70;;;9.60;99.90;;;;;;5043617;28;21171;-79
2022/12/28 12:57:57;;;;;;;3.87;3.37;;;9.60;99.90;;;;;;5044100;28;20477;-83
2022/12/28 13:00:33;;;;;;;3.70;3.10;;;9.60;99.90;;;;;;5044794;28;20441;-79
2022/12/28 13:03:19;;;;;;;4.03;3.27;;;9.60;99.90;;;;;;5044553;28;20495;-80
2022/12/28 13:05:53;;;;;;;3.73;3.10;;;9.60;99.90;;;;;;5045777;28;20462;-78
2022/12/28 13:08:26;;;;;;;4.00;3.03;;;9.60;99.90;;;;;;5047061;28;20499;-80
2022/12/28 13:10:55;;;;;;;3.80;3.40;;;9.50;99.90;;;;;;5062146;28;20421;-78
2022/12/28 13:13:31;;;;;;;5.13;3.70;;;9.50;99.90;;;;;;5065713;28;20473;-80
2022/12/28 13:16:02;;;;;;;4.50;3.60;;;9.60;99.90;;;;;;5048149;28;20466;-80
2022/12/28 13:18:31;;;;;;;4.30;3.87;;;9.50;99.90;;;;;;5045529;28;20443;-79
2022/12/28 13:21:20;;;;;;;4.40;3.90;;;9.50;99.90;;;;;;5063041;28;20423;-80
2022/12/28 13:23:50;;;;;;;5.97;5.37;;;9.50;99.90;;;;;;5045135;28;20985;-80
2022/12/28 13:26:24;;;;;;;5.80;5.20;;;9.50;99.90;;;;;;5043446;28;20470;-79
2022/12/28 13:28:57;;;;;;;5.93;4.63;;;9.50;99.90;;;;;;5061724;28;20450;-79
2022/12/28 13:31:33;;;;;;;5.00;4.50;;;9.50;99.90;;;;;;5065681;28;20421;-79
2022/12/28 13:34:03;;;;;;;4.10;3.70;;;9.50;99.90;;;;;;5046607;28;20887;-80
2022/12/28 13:36:33;;;;;;;6.00;5.00;;;9.50;99.90;;;;;;5045313;28;20470;-79
2022/12/28 13:39:19;;;;;;;6.77;6.17;;;9.50;99.90;;;;;;5045656;28;20457;-80
2022/12/28 13:41:50;;;;;;;9.30;8.50;;;9.50;99.90;;;;;;5046599;28;20453;-78
2022/12/28 13:44:38;;;;;;;10.27;9.27;;;9.50;99.90;;;;;;5065266;28;20510;-79
2022/12/28 13:47:16;;;;;;;11.40;10.40;;;9.50;99.90;;;;;;5045474;28;20453;-79